sensor_id;sensor_type;location;lat;lon;timestamp;P1;durP1;ratioP1;P2;durP2;ratioP2
14141;SDS011;7151;52.246;4.820;2023-12-07T00:00:36;6.73;;;4.90;;
14141;SDS011;7151;52.246;4.820;2023-12-07T00:03:02;9.07;;;5.47;;
14141;SDS011;7151;52.246;4.820;2023-12-07T00:05:28;7.80;;;4.93;;
14141;SDS011;7151;52.246;4.820;2023-12-07T00:07:53;5.83;;;4.17;;
14141;SDS011;7151;52.246;4.820;2023-12-07T00:10:19;7.07;;;5.07;;
14141;SDS011;7151;52.246;4.820;2023-12-07T00:12:45;6.63;;;4.70;;
14141;SDS011;7151;52.246;4.820;2023-12-07T00:15:10;8.03;;;4.53;;
14141;SDS011;7151;52.246;4.820;2023-12-07T00:17:36;5.10;;;4.17;;
14141;SDS011;7151;52.246;4.820;2023-12-07T00:20:02;5.13;;;4.47;;
14141;SDS011;7151;52.246;4.820;2023-12-07T00:22:32;4.90;;;4.30;;
14141;SDS011;7151;52.246;4.820;2023-12-07T00:24:58;5.17;;;3.97;;
14141;SDS011;7151;52.246;4.820;2023-12-07T00:27:23;5.80;;;4.10;;
14141;SDS011;7151;52.246;4.820;2023-12-07T00:29:49;5.87;;;4.63;;
14141;SDS011;7151;52.246;4.820;2023-12-07T00:32:15;5.17;;;3.93;;
14141;SDS011;7151;52.246;4.820;2023-12-07T00:34:40;6.37;;;4.60;;
14141;SDS011;7151;52.246;4.820;2023-12-07T00:37:06;7.30;;;4.90;;
14141;SDS011;7151;52.246;4.820;2023-12-07T00:39:32;8.87;;;5.13;;
14141;SDS011;7151;52.246;4.820;2023-12-07T00:41:58;5.27;;;4.07;;
14141;SDS011;7151;52.246;4.820;2023-12-07T00:44:23;8.10;;;5.23;;
14141;SDS011;7151;52.246;4.820;2023-12-07T00:46:49;7.10;;;5.27;;
14141;SDS011;7151;52.246;4.820;2023-12-07T00:49:15;6.33;;;4.00;;
14141;SDS011;7151;52.246;4.820;2023-12-07T00:51:41;6.60;;;4.90;;
14141;SDS011;7151;52.246;4.820;2023-12-07T00:54:07;9.60;;;5.10;;
14141;SDS011;7151;52.246;4.820;2023-12-07T00:56:32;5.33;;;4.13;;
14141;SDS011;7151;52.246;4.820;2023-12-07T00:58:58;7.33;;;4.70;;
14141;SDS011;7151;52.246;4.820;2023-12-07T01:01:24;6.00;;;4.53;;
14141;SDS011;7151;52.246;4.820;2023-12-07T01:03:49;5.90;;;4.60;;
14141;SDS011;7151;52.246;4.820;2023-12-07T01:06:15;5.23;;;4.23;;
14141;SDS011;7151;52.246;4.820;2023-12-07T01:08:41;5.93;;;4.00;;
14141;SDS011;7151;52.246;4.820;2023-12-07T01:11:08;7.10;;;4.33;;
14141;SDS011;7151;52.246;4.820;2023-12-07T01:13:34;7.33;;;4.67;;
14141;SDS011;7151;52.246;4.820;2023-12-07T01:16:01;5.53;;;4.20;;
14141;SDS011;7151;52.246;4.820;2023-12-07T01:18:26;5.90;;;4.10;;
14141;SDS011;7151;52.246;4.820;2023-12-07T01:20:52;5.17;;;3.97;;
14141;SDS011;7151;52.246;4.820;2023-12-07T01:23:18;5.93;;;4.07;;
14141;SDS011;7151;52.246;4.820;2023-12-07T01:25:43;6.57;;;4.43;;
14141;SDS011;7151;52.246;4.820;2023-12-07T01:28:09;6.37;;;4.83;;
14141;SDS011;7151;52.246;4.820;2023-12-07T01:30:35;7.10;;;4.90;;
14141;SDS011;7151;52.246;4.820;2023-12-07T01:33:01;5.03;;;3.93;;
14141;SDS011;7151;52.246;4.820;2023-12-07T01:35:27;9.13;;;5.20;;
14141;SDS011;7151;52.246;4.820;2023-12-07T01:37:53;8.57;;;5.27;;
14141;SDS011;7151;52.246;4.820;2023-12-07T01:40:19;5.93;;;5.03;;
14141;SDS011;7151;52.246;4.820;2023-12-07T01:42:51;6.33;;;4.60;;
14141;SDS011;7151;52.246;4.820;2023-12-07T01:45:18;4.57;;;4.17;;
14141;SDS011;7151;52.246;4.820;2023-12-07T01:47:44;5.13;;;4.63;;
14141;SDS011;7151;52.246;4.820;2023-12-07T01:50:11;8.33;;;5.30;;
14141;SDS011;7151;52.246;4.820;2023-12-07T01:52:42;8.20;;;5.00;;
14141;SDS011;7151;52.246;4.820;2023-12-07T01:55:10;6.70;;;4.97;;
14141;SDS011;7151;52.246;4.820;2023-12-07T01:57:37;7.03;;;5.53;;
14141;SDS011;7151;52.246;4.820;2023-12-07T02:00:03;7.77;;;5.60;;
14141;SDS011;7151;52.246;4.820;2023-12-07T02:02:29;6.60;;;5.47;;
14141;SDS011;7151;52.246;4.820;2023-12-07T02:04:56;6.60;;;4.80;;
14141;SDS011;7151;52.246;4.820;2023-12-07T02:07:22;6.07;;;4.67;;
14141;SDS011;7151;52.246;4.820;2023-12-07T02:09:48;7.60;;;5.30;;
14141;SDS011;7151;52.246;4.820;2023-12-07T02:12:14;5.57;;;4.20;;
14141;SDS011;7151;52.246;4.820;2023-12-07T02:14:40;6.23;;;4.77;;
14141;SDS011;7151;52.246;4.820;2023-12-07T02:17:18;8.70;;;4.53;;
14141;SDS011;7151;52.246;4.820;2023-12-07T02:22:55;8.30;;;5.57;;
14141;SDS011;7151;52.246;4.820;2023-12-07T02:25:44;8.47;;;5.37;;
14141;SDS011;7151;52.246;4.820;2023-12-07T02:28:16;5.50;;;4.63;;
14141;SDS011;7151;52.246;4.820;2023-12-07T02:30:42;9.00;;;4.50;;
14141;SDS011;7151;52.246;4.820;2023-12-07T02:33:07;6.53;;;4.87;;
14141;SDS011;7151;52.246;4.820;2023-12-07T02:35:34;5.10;;;4.60;;
14141;SDS011;7151;52.246;4.820;2023-12-07T02:38:01;6.00;;;4.67;;
14141;SDS011;7151;52.246;4.820;2023-12-07T02:40:27;7.63;;;5.00;;
14141;SDS011;7151;52.246;4.820;2023-12-07T02:42:53;6.63;;;4.67;;
14141;SDS011;7151;52.246;4.820;2023-12-07T02:45:20;7.37;;;3.97;;
14141;SDS011;7151;52.246;4.820;2023-12-07T02:47:46;4.93;;;4.43;;
14141;SDS011;7151;52.246;4.820;2023-12-07T02:50:12;5.60;;;4.63;;
14141;SDS011;7151;52.246;4.820;2023-12-07T02:52:38;7.50;;;4.87;;
14141;SDS011;7151;52.246;4.820;2023-12-07T02:55:04;6.47;;;4.57;;
14141;SDS011;7151;52.246;4.820;2023-12-07T02:57:30;5.47;;;4.47;;
14141;SDS011;7151;52.246;4.820;2023-12-07T02:59:58;8.77;;;5.63;;
14141;SDS011;7151;52.246;4.820;2023-12-07T03:02:24;7.13;;;5.20;;
14141;SDS011;7151;52.246;4.820;2023-12-07T03:04:50;5.43;;;4.60;;
14141;SDS011;7151;52.246;4.820;2023-12-07T03:07:16;6.10;;;5.13;;
14141;SDS011;7151;52.246;4.820;2023-12-07T03:09:42;7.70;;;5.10;;
14141;SDS011;7151;52.246;4.820;2023-12-07T03:12:07;6.33;;;5.13;;
14141;SDS011;7151;52.246;4.820;2023-12-07T03:14:33;6.43;;;4.90;;
14141;SDS011;7151;52.246;4.820;2023-12-07T03:16:59;8.43;;;5.70;;
14141;SDS011;7151;52.246;4.820;2023-12-07T03:19:24;5.80;;;4.50;;
14141;SDS011;7151;52.246;4.820;2023-12-07T03:21:50;7.87;;;5.40;;
14141;SDS011;7151;52.246;4.820;2023-12-07T03:24:16;7.53;;;4.90;;
14141;SDS011;7151;52.246;4.820;2023-12-07T03:26:41;7.73;;;4.90;;
14141;SDS011;7151;52.246;4.820;2023-12-07T03:29:07;6.63;;;5.20;;
14141;SDS011;7151;52.246;4.820;2023-12-07T03:31:33;7.70;;;5.57;;
14141;SDS011;7151;52.246;4.820;2023-12-07T03:33:58;10.27;;;6.77;;
14141;SDS011;7151;52.246;4.820;2023-12-07T03:36:26;10.20;;;6.07;;
14141;SDS011;7151;52.246;4.820;2023-12-07T03:38:52;9.30;;;6.03;;
14141;SDS011;7151;52.246;4.820;2023-12-07T03:41:18;9.93;;;5.67;;
14141;SDS011;7151;52.246;4.820;2023-12-07T03:43:43;12.13;;;5.60;;
14141;SDS011;7151;52.246;4.820;2023-12-07T03:46:09;6.77;;;5.10;;
14141;SDS011;7151;52.246;4.820;2023-12-07T03:48:35;6.33;;;5.03;;
14141;SDS011;7151;52.246;4.820;2023-12-07T03:51:00;7.37;;;5.03;;
14141;SDS011;7151;52.246;4.820;2023-12-07T03:53:26;9.97;;;5.67;;
14141;SDS011;7151;52.246;4.820;2023-12-07T03:55:52;8.67;;;5.43;;
14141;SDS011;7151;52.246;4.820;2023-12-07T03:58:18;7.73;;;5.53;;
14141;SDS011;7151;52.246;4.820;2023-12-07T04:00:44;9.43;;;5.40;;
14141;SDS011;7151;52.246;4.820;2023-12-07T04:03:10;7.13;;;4.67;;
14141;SDS011;7151;52.246;4.820;2023-12-07T04:05:36;7.33;;;4.17;;
14141;SDS011;7151;52.246;4.820;2023-12-07T04:08:02;4.73;;;4.30;;
14141;SDS011;7151;52.246;4.820;2023-12-07T04:10:30;6.00;;;4.90;;
14141;SDS011;7151;52.246;4.820;2023-12-07T04:12:56;9.80;;;5.13;;
14141;SDS011;7151;52.246;4.820;2023-12-07T04:15:21;6.90;;;4.63;;
14141;SDS011;7151;52.246;4.820;2023-12-07T04:17:48;6.73;;;4.70;;
14141;SDS011;7151;52.246;4.820;2023-12-07T04:20:13;6.97;;;5.20;;
14141;SDS011;7151;52.246;4.820;2023-12-07T04:22:39;7.40;;;4.80;;
14141;SDS011;7151;52.246;4.820;2023-12-07T04:25:05;6.13;;;4.77;;
14141;SDS011;7151;52.246;4.820;2023-12-07T04:27:32;7.60;;;4.80;;
14141;SDS011;7151;52.246;4.820;2023-12-07T04:29:58;7.23;;;4.73;;
14141;SDS011;7151;52.246;4.820;2023-12-07T04:32:24;6.00;;;4.77;;
14141;SDS011;7151;52.246;4.820;2023-12-07T04:34:50;7.03;;;4.63;;
14141;SDS011;7151;52.246;4.820;2023-12-07T04:37:16;5.40;;;4.13;;
14141;SDS011;7151;52.246;4.820;2023-12-07T04:39:42;5.30;;;4.27;;
14141;SDS011;7151;52.246;4.820;2023-12-07T04:42:08;5.97;;;4.30;;
14141;SDS011;7151;52.246;4.820;2023-12-07T04:44:33;7.43;;;5.13;;
14141;SDS011;7151;52.246;4.820;2023-12-07T04:46:59;6.57;;;4.37;;
14141;SDS011;7151;52.246;4.820;2023-12-07T04:49:25;9.20;;;4.33;;
14141;SDS011;7151;52.246;4.820;2023-12-07T04:51:51;7.10;;;4.57;;
14141;SDS011;7151;52.246;4.820;2023-12-07T04:54:17;5.43;;;4.40;;
14141;SDS011;7151;52.246;4.820;2023-12-07T04:56:42;5.47;;;4.93;;
14141;SDS011;7151;52.246;4.820;2023-12-07T04:59:09;7.53;;;5.00;;
14141;SDS011;7151;52.246;4.820;2023-12-07T05:01:35;7.33;;;5.07;;
14141;SDS011;7151;52.246;4.820;2023-12-07T05:04:01;11.77;;;4.90;;
14141;SDS011;7151;52.246;4.820;2023-12-07T05:06:29;7.27;;;5.27;;
14141;SDS011;7151;52.246;4.820;2023-12-07T05:08:58;6.87;;;4.80;;
14141;SDS011;7151;52.246;4.820;2023-12-07T05:11:23;9.20;;;4.80;;
14141;SDS011;7151;52.246;4.820;2023-12-07T05:13:49;10.70;;;5.23;;
14141;SDS011;7151;52.246;4.820;2023-12-07T05:16:15;7.77;;;5.63;;
14141;SDS011;7151;52.246;4.820;2023-12-07T05:18:41;7.90;;;5.07;;
14141;SDS011;7151;52.246;4.820;2023-12-07T05:21:06;15.33;;;5.07;;
14141;SDS011;7151;52.246;4.820;2023-12-07T05:23:32;6.30;;;5.23;;
14141;SDS011;7151;52.246;4.820;2023-12-07T05:25:58;7.57;;;5.60;;
14141;SDS011;7151;52.246;4.820;2023-12-07T05:28:24;6.77;;;5.37;;
14141;SDS011;7151;52.246;4.820;2023-12-07T05:30:50;8.43;;;5.63;;
14141;SDS011;7151;52.246;4.820;2023-12-07T05:33:17;8.07;;;5.43;;
14141;SDS011;7151;52.246;4.820;2023-12-07T05:35:44;9.90;;;5.60;;
14141;SDS011;7151;52.246;4.820;2023-12-07T05:38:10;11.63;;;6.63;;
14141;SDS011;7151;52.246;4.820;2023-12-07T05:40:35;10.50;;;6.57;;
14141;SDS011;7151;52.246;4.820;2023-12-07T05:43:01;10.50;;;6.90;;
14141;SDS011;7151;52.246;4.820;2023-12-07T05:45:27;10.03;;;6.70;;
14141;SDS011;7151;52.246;4.820;2023-12-07T05:47:52;16.07;;;7.23;;
14141;SDS011;7151;52.246;4.820;2023-12-07T05:50:18;14.53;;;6.43;;
14141;SDS011;7151;52.246;4.820;2023-12-07T05:52:45;11.53;;;6.20;;
14141;SDS011;7151;52.246;4.820;2023-12-07T05:55:11;13.13;;;6.67;;
14141;SDS011;7151;52.246;4.820;2023-12-07T05:57:36;11.37;;;6.43;;
14141;SDS011;7151;52.246;4.820;2023-12-07T06:00:02;10.77;;;6.33;;
14141;SDS011;7151;52.246;4.820;2023-12-07T06:02:32;13.37;;;7.30;;
14141;SDS011;7151;52.246;4.820;2023-12-07T06:04:58;11.03;;;5.90;;
14141;SDS011;7151;52.246;4.820;2023-12-07T06:07:24;8.83;;;5.30;;
14141;SDS011;7151;52.246;4.820;2023-12-07T06:09:49;11.53;;;6.20;;
14141;SDS011;7151;52.246;4.820;2023-12-07T06:12:15;8.63;;;6.23;;
14141;SDS011;7151;52.246;4.820;2023-12-07T06:14:41;9.83;;;6.20;;
14141;SDS011;7151;52.246;4.820;2023-12-07T06:17:07;9.83;;;6.87;;
14141;SDS011;7151;52.246;4.820;2023-12-07T06:19:33;10.70;;;6.47;;
14141;SDS011;7151;52.246;4.820;2023-12-07T06:21:59;8.93;;;5.90;;
14141;SDS011;7151;52.246;4.820;2023-12-07T06:24:24;14.43;;;7.07;;
14141;SDS011;7151;52.246;4.820;2023-12-07T06:26:50;12.80;;;8.40;;
14141;SDS011;7151;52.246;4.820;2023-12-07T06:29:17;11.17;;;7.60;;
14141;SDS011;7151;52.246;4.820;2023-12-07T06:31:43;14.50;;;8.97;;
14141;SDS011;7151;52.246;4.820;2023-12-07T06:34:09;18.93;;;9.20;;
14141;SDS011;7151;52.246;4.820;2023-12-07T06:36:35;16.30;;;8.50;;
14141;SDS011;7151;52.246;4.820;2023-12-07T06:39:01;19.90;;;10.03;;
14141;SDS011;7151;52.246;4.820;2023-12-07T06:41:28;15.83;;;8.93;;
14141;SDS011;7151;52.246;4.820;2023-12-07T06:43:54;17.10;;;8.90;;
14141;SDS011;7151;52.246;4.820;2023-12-07T06:46:20;17.27;;;9.57;;
14141;SDS011;7151;52.246;4.820;2023-12-07T06:48:45;21.10;;;9.83;;
14141;SDS011;7151;52.246;4.820;2023-12-07T06:51:11;16.20;;;9.57;;
14141;SDS011;7151;52.246;4.820;2023-12-07T06:53:41;21.77;;;9.63;;
14141;SDS011;7151;52.246;4.820;2023-12-07T06:56:07;26.57;;;9.93;;
14141;SDS011;7151;52.246;4.820;2023-12-07T06:58:33;20.03;;;10.00;;
14141;SDS011;7151;52.246;4.820;2023-12-07T07:00:59;20.27;;;10.03;;
14141;SDS011;7151;52.246;4.820;2023-12-07T07:03:25;30.30;;;10.43;;
14141;SDS011;7151;52.246;4.820;2023-12-07T07:05:52;16.20;;;9.57;;
14141;SDS011;7151;52.246;4.820;2023-12-07T07:08:19;25.33;;;10.53;;
14141;SDS011;7151;52.246;4.820;2023-12-07T07:10:45;21.50;;;10.60;;
14141;SDS011;7151;52.246;4.820;2023-12-07T07:13:13;18.67;;;10.37;;
14141;SDS011;7151;52.246;4.820;2023-12-07T07:15:44;22.47;;;9.07;;
14141;SDS011;7151;52.246;4.820;2023-12-07T07:18:10;18.30;;;8.83;;
14141;SDS011;7151;52.246;4.820;2023-12-07T07:20:35;22.00;;;10.50;;
14141;SDS011;7151;52.246;4.820;2023-12-07T07:23:01;18.83;;;10.30;;
14141;SDS011;7151;52.246;4.820;2023-12-07T07:25:27;15.33;;;8.90;;
14141;SDS011;7151;52.246;4.820;2023-12-07T07:27:52;14.93;;;9.03;;
14141;SDS011;7151;52.246;4.820;2023-12-07T07:30:19;20.87;;;10.13;;
14141;SDS011;7151;52.246;4.820;2023-12-07T07:32:46;21.20;;;9.73;;
14141;SDS011;7151;52.246;4.820;2023-12-07T07:35:11;16.47;;;8.67;;
14141;SDS011;7151;52.246;4.820;2023-12-07T07:37:38;18.23;;;8.20;;
14141;SDS011;7151;52.246;4.820;2023-12-07T07:40:04;18.63;;;9.57;;
14141;SDS011;7151;52.246;4.820;2023-12-07T07:42:32;17.67;;;8.23;;
14141;SDS011;7151;52.246;4.820;2023-12-07T07:44:58;15.70;;;8.93;;
14141;SDS011;7151;52.246;4.820;2023-12-07T07:47:24;14.80;;;8.57;;
14141;SDS011;7151;52.246;4.820;2023-12-07T07:49:49;14.10;;;8.97;;
14141;SDS011;7151;52.246;4.820;2023-12-07T07:52:15;20.93;;;8.43;;
14141;SDS011;7151;52.246;4.820;2023-12-07T07:54:41;17.73;;;9.57;;
14141;SDS011;7151;52.246;4.820;2023-12-07T07:57:07;15.77;;;9.43;;
14141;SDS011;7151;52.246;4.820;2023-12-07T07:59:33;21.47;;;9.07;;
14141;SDS011;7151;52.246;4.820;2023-12-07T08:01:58;19.10;;;8.57;;
14141;SDS011;7151;52.246;4.820;2023-12-07T08:04:24;19.63;;;8.07;;
14141;SDS011;7151;52.246;4.820;2023-12-07T08:06:50;15.53;;;7.27;;
14141;SDS011;7151;52.246;4.820;2023-12-07T08:09:15;16.90;;;7.47;;
14141;SDS011;7151;52.246;4.820;2023-12-07T08:11:41;12.00;;;7.10;;
14141;SDS011;7151;52.246;4.820;2023-12-07T08:14:07;13.00;;;7.47;;
14141;SDS011;7151;52.246;4.820;2023-12-07T08:16:33;20.67;;;7.10;;
14141;SDS011;7151;52.246;4.820;2023-12-07T08:18:59;8.93;;;6.97;;
14141;SDS011;7151;52.246;4.820;2023-12-07T08:21:25;13.80;;;6.80;;
14141;SDS011;7151;52.246;4.820;2023-12-07T08:23:51;10.70;;;5.87;;
14141;SDS011;7151;52.246;4.820;2023-12-07T08:26:17;13.50;;;6.70;;
14141;SDS011;7151;52.246;4.820;2023-12-07T08:28:43;12.30;;;6.87;;
14141;SDS011;7151;52.246;4.820;2023-12-07T08:31:12;11.93;;;6.90;;
14141;SDS011;7151;52.246;4.820;2023-12-07T08:33:37;13.20;;;6.03;;
14141;SDS011;7151;52.246;4.820;2023-12-07T08:36:04;13.03;;;6.53;;
14141;SDS011;7151;52.246;4.820;2023-12-07T08:38:31;14.33;;;6.83;;
14141;SDS011;7151;52.246;4.820;2023-12-07T08:40:57;12.83;;;6.13;;
14141;SDS011;7151;52.246;4.820;2023-12-07T08:43:23;10.83;;;6.70;;
14141;SDS011;7151;52.246;4.820;2023-12-07T08:45:52;10.57;;;6.23;;
14141;SDS011;7151;52.246;4.820;2023-12-07T08:48:18;13.43;;;6.20;;
14141;SDS011;7151;52.246;4.820;2023-12-07T08:50:45;10.70;;;5.57;;
14141;SDS011;7151;52.246;4.820;2023-12-07T08:53:11;11.20;;;6.47;;
14141;SDS011;7151;52.246;4.820;2023-12-07T08:55:37;13.77;;;5.43;;
14141;SDS011;7151;52.246;4.820;2023-12-07T08:58:02;8.57;;;4.70;;
14141;SDS011;7151;52.246;4.820;2023-12-07T09:00:31;8.50;;;5.50;;
14141;SDS011;7151;52.246;4.820;2023-12-07T09:02:57;9.40;;;5.10;;
14141;SDS011;7151;52.246;4.820;2023-12-07T09:05:23;10.57;;;5.07;;
14141;SDS011;7151;52.246;4.820;2023-12-07T09:07:51;9.87;;;5.17;;
14141;SDS011;7151;52.246;4.820;2023-12-07T09:10:17;11.77;;;5.10;;
14141;SDS011;7151;52.246;4.820;2023-12-07T09:12:44;8.63;;;4.77;;
14141;SDS011;7151;52.246;4.820;2023-12-07T09:15:10;7.30;;;4.40;;
14141;SDS011;7151;52.246;4.820;2023-12-07T09:17:36;8.53;;;4.70;;
14141;SDS011;7151;52.246;4.820;2023-12-07T09:20:04;5.73;;;4.00;;
14141;SDS011;7151;52.246;4.820;2023-12-07T09:22:42;10.33;;;5.00;;
14141;SDS011;7151;52.246;4.820;2023-12-07T09:25:09;8.40;;;4.97;;
14141;SDS011;7151;52.246;4.820;2023-12-07T09:27:36;7.57;;;5.33;;
14141;SDS011;7151;52.246;4.820;2023-12-07T09:30:05;9.47;;;5.93;;
14141;SDS011;7151;52.246;4.820;2023-12-07T09:32:32;9.87;;;5.80;;
14141;SDS011;7151;52.246;4.820;2023-12-07T09:35:06;12.20;;;6.10;;
14141;SDS011;7151;52.246;4.820;2023-12-07T09:37:33;15.43;;;5.27;;
14141;SDS011;7151;52.246;4.820;2023-12-07T09:39:59;13.10;;;6.00;;
14141;SDS011;7151;52.246;4.820;2023-12-07T09:42:26;10.67;;;5.77;;
14141;SDS011;7151;52.246;4.820;2023-12-07T09:44:52;9.30;;;5.20;;
14141;SDS011;7151;52.246;4.820;2023-12-07T09:47:17;7.73;;;5.13;;
14141;SDS011;7151;52.246;4.820;2023-12-07T09:49:44;10.10;;;5.13;;
14141;SDS011;7151;52.246;4.820;2023-12-07T09:52:10;8.03;;;4.77;;
14141;SDS011;7151;52.246;4.820;2023-12-07T09:54:40;9.43;;;5.00;;
14141;SDS011;7151;52.246;4.820;2023-12-07T09:57:06;10.07;;;6.00;;
14141;SDS011;7151;52.246;4.820;2023-12-07T09:59:34;9.43;;;5.93;;
14141;SDS011;7151;52.246;4.820;2023-12-07T10:02:01;11.07;;;6.23;;
14141;SDS011;7151;52.246;4.820;2023-12-07T10:04:27;11.10;;;6.60;;
14141;SDS011;7151;52.246;4.820;2023-12-07T10:06:53;13.30;;;7.27;;
14141;SDS011;7151;52.246;4.820;2023-12-07T10:09:19;12.80;;;7.33;;
14141;SDS011;7151;52.246;4.820;2023-12-07T10:11:46;16.17;;;7.07;;
14141;SDS011;7151;52.246;4.820;2023-12-07T10:14:14;15.67;;;6.73;;
14141;SDS011;7151;52.246;4.820;2023-12-07T10:16:52;14.27;;;6.40;;
14141;SDS011;7151;52.246;4.820;2023-12-07T10:19:21;12.30;;;7.20;;
14141;SDS011;7151;52.246;4.820;2023-12-07T10:21:48;11.37;;;7.00;;
14141;SDS011;7151;52.246;4.820;2023-12-07T10:24:15;15.83;;;7.90;;
14141;SDS011;7151;52.246;4.820;2023-12-07T10:26:41;12.10;;;6.20;;
14141;SDS011;7151;52.246;4.820;2023-12-07T10:29:09;8.93;;;6.30;;
14141;SDS011;7151;52.246;4.820;2023-12-07T10:31:36;16.10;;;7.53;;
14141;SDS011;7151;52.246;4.820;2023-12-07T10:34:02;14.37;;;7.03;;
14141;SDS011;7151;52.246;4.820;2023-12-07T10:36:29;19.60;;;7.23;;
14141;SDS011;7151;52.246;4.820;2023-12-07T10:38:55;9.17;;;5.33;;
14141;SDS011;7151;52.246;4.820;2023-12-07T10:41:21;10.77;;;6.13;;
14141;SDS011;7151;52.246;4.820;2023-12-07T10:43:49;14.00;;;5.50;;
14141;SDS011;7151;52.246;4.820;2023-12-07T10:46:19;9.47;;;4.80;;
14141;SDS011;7151;52.246;4.820;2023-12-07T10:48:47;13.90;;;5.80;;
14141;SDS011;7151;52.246;4.820;2023-12-07T10:51:25;12.00;;;5.73;;
14141;SDS011;7151;52.246;4.820;2023-12-07T10:53:57;10.63;;;5.53;;
14141;SDS011;7151;52.246;4.820;2023-12-07T10:56:39;10.77;;;5.53;;
14141;SDS011;7151;52.246;4.820;2023-12-07T10:59:11;6.67;;;4.60;;
14141;SDS011;7151;52.246;4.820;2023-12-07T11:01:40;13.33;;;6.57;;
14141;SDS011;7151;52.246;4.820;2023-12-07T11:04:08;13.23;;;6.30;;
14141;SDS011;7151;52.246;4.820;2023-12-07T11:06:40;11.10;;;5.43;;
14141;SDS011;7151;52.246;4.820;2023-12-07T11:09:08;10.50;;;5.57;;
14141;SDS011;7151;52.246;4.820;2023-12-07T11:14:08;13.80;;;5.37;;
14141;SDS011;7151;52.246;4.820;2023-12-07T11:16:41;9.43;;;5.40;;
14141;SDS011;7151;52.246;4.820;2023-12-07T11:22:09;14.43;;;6.27;;
14141;SDS011;7151;52.246;4.820;2023-12-07T11:24:36;12.43;;;5.30;;
14141;SDS011;7151;52.246;4.820;2023-12-07T11:27:02;10.93;;;5.70;;
14141;SDS011;7151;52.246;4.820;2023-12-07T11:29:28;9.60;;;5.17;;
14141;SDS011;7151;52.246;4.820;2023-12-07T11:32:06;15.60;;;5.50;;
14141;SDS011;7151;52.246;4.820;2023-12-07T11:34:36;11.27;;;5.17;;
14141;SDS011;7151;52.246;4.820;2023-12-07T11:37:06;11.50;;;5.60;;
14141;SDS011;7151;52.246;4.820;2023-12-07T11:39:36;11.90;;;6.23;;
14141;SDS011;7151;52.246;4.820;2023-12-07T11:42:14;9.87;;;5.57;;
14141;SDS011;7151;52.246;4.820;2023-12-07T11:44:42;10.17;;;6.10;;
14141;SDS011;7151;52.246;4.820;2023-12-07T11:47:15;11.60;;;6.90;;
14141;SDS011;7151;52.246;4.820;2023-12-07T11:49:42;12.37;;;5.67;;
14141;SDS011;7151;52.246;4.820;2023-12-07T11:52:12;10.70;;;5.90;;
14141;SDS011;7151;52.246;4.820;2023-12-07T11:54:38;9.53;;;7.07;;
14141;SDS011;7151;52.246;4.820;2023-12-07T11:57:03;10.30;;;5.97;;
14141;SDS011;7151;52.246;4.820;2023-12-07T11:59:29;11.80;;;6.10;;
14141;SDS011;7151;52.246;4.820;2023-12-07T12:01:58;13.00;;;6.83;;
14141;SDS011;7151;52.246;4.820;2023-12-07T12:04:24;12.77;;;6.53;;
14141;SDS011;7151;52.246;4.820;2023-12-07T12:06:50;10.80;;;6.87;;
14141;SDS011;7151;52.246;4.820;2023-12-07T12:09:15;15.00;;;6.87;;
14141;SDS011;7151;52.246;4.820;2023-12-07T12:11:47;13.90;;;7.37;;
14141;SDS011;7151;52.246;4.820;2023-12-07T12:14:16;13.10;;;7.90;;
14141;SDS011;7151;52.246;4.820;2023-12-07T12:16:45;14.57;;;6.57;;
14141;SDS011;7151;52.246;4.820;2023-12-07T12:19:11;16.27;;;8.07;;
14141;SDS011;7151;52.246;4.820;2023-12-07T12:21:39;18.27;;;7.33;;
14141;SDS011;7151;52.246;4.820;2023-12-07T12:24:08;12.97;;;6.13;;
14141;SDS011;7151;52.246;4.820;2023-12-07T12:26:36;12.57;;;7.20;;
14141;SDS011;7151;52.246;4.820;2023-12-07T12:29:04;13.33;;;7.30;;
14141;SDS011;7151;52.246;4.820;2023-12-07T12:31:30;13.37;;;7.93;;
14141;SDS011;7151;52.246;4.820;2023-12-07T12:33:56;13.47;;;7.77;;
14141;SDS011;7151;52.246;4.820;2023-12-07T12:36:22;12.53;;;7.23;;
14141;SDS011;7151;52.246;4.820;2023-12-07T12:38:51;14.60;;;6.97;;
14141;SDS011;7151;52.246;4.820;2023-12-07T12:41:18;14.47;;;7.30;;
14141;SDS011;7151;52.246;4.820;2023-12-07T12:43:44;16.67;;;8.27;;
14141;SDS011;7151;52.246;4.820;2023-12-07T12:46:10;14.50;;;7.63;;
14141;SDS011;7151;52.246;4.820;2023-12-07T12:48:36;14.70;;;8.17;;
14141;SDS011;7151;52.246;4.820;2023-12-07T12:51:12;15.07;;;7.97;;
14141;SDS011;7151;52.246;4.820;2023-12-07T12:53:44;14.07;;;7.47;;
14141;SDS011;7151;52.246;4.820;2023-12-07T12:56:11;13.97;;;8.17;;
14141;SDS011;7151;52.246;4.820;2023-12-07T12:58:38;18.70;;;8.70;;
14141;SDS011;7151;52.246;4.820;2023-12-07T13:01:04;20.10;;;8.93;;
14141;SDS011;7151;52.246;4.820;2023-12-07T13:03:31;13.23;;;7.57;;
14141;SDS011;7151;52.246;4.820;2023-12-07T13:05:57;15.50;;;8.10;;
14141;SDS011;7151;52.246;4.820;2023-12-07T13:08:23;15.97;;;7.90;;
14141;SDS011;7151;52.246;4.820;2023-12-07T13:10:49;15.97;;;7.67;;
14141;SDS011;7151;52.246;4.820;2023-12-07T13:13:15;12.77;;;7.73;;
14141;SDS011;7151;52.246;4.820;2023-12-07T13:15:41;12.27;;;6.87;;
14141;SDS011;7151;52.246;4.820;2023-12-07T13:18:07;16.43;;;8.87;;
14141;SDS011;7151;52.246;4.820;2023-12-07T13:20:33;15.53;;;7.37;;
14141;SDS011;7151;52.246;4.820;2023-12-07T13:23:03;14.97;;;7.97;;
14141;SDS011;7151;52.246;4.820;2023-12-07T13:25:29;18.17;;;8.70;;
14141;SDS011;7151;52.246;4.820;2023-12-07T13:27:55;14.53;;;8.07;;
14141;SDS011;7151;52.246;4.820;2023-12-07T13:30:21;13.40;;;8.60;;
14141;SDS011;7151;52.246;4.820;2023-12-07T13:32:46;14.70;;;8.07;;
14141;SDS011;7151;52.246;4.820;2023-12-07T13:35:13;16.30;;;7.73;;
14141;SDS011;7151;52.246;4.820;2023-12-07T13:37:39;14.87;;;8.57;;
14141;SDS011;7151;52.246;4.820;2023-12-07T13:40:04;16.43;;;8.03;;
14141;SDS011;7151;52.246;4.820;2023-12-07T13:42:35;13.83;;;8.00;;
14141;SDS011;7151;52.246;4.820;2023-12-07T13:45:02;16.73;;;8.30;;
14141;SDS011;7151;52.246;4.820;2023-12-07T13:47:28;14.03;;;9.07;;
14141;SDS011;7151;52.246;4.820;2023-12-07T13:49:57;17.00;;;8.90;;
14141;SDS011;7151;52.246;4.820;2023-12-07T13:52:24;20.90;;;9.10;;
14141;SDS011;7151;52.246;4.820;2023-12-07T13:54:50;16.10;;;8.23;;
14141;SDS011;7151;52.246;4.820;2023-12-07T13:57:15;21.00;;;9.27;;
14141;SDS011;7151;52.246;4.820;2023-12-07T13:59:41;21.67;;;9.00;;
14141;SDS011;7151;52.246;4.820;2023-12-07T14:02:07;15.40;;;8.90;;
14141;SDS011;7151;52.246;4.820;2023-12-07T14:04:33;16.80;;;8.70;;
14141;SDS011;7151;52.246;4.820;2023-12-07T14:07:12;14.97;;;8.53;;
14141;SDS011;7151;52.246;4.820;2023-12-07T14:09:40;14.20;;;8.43;;
14141;SDS011;7151;52.246;4.820;2023-12-07T14:12:07;14.70;;;9.07;;
14141;SDS011;7151;52.246;4.820;2023-12-07T14:14:34;18.50;;;9.87;;
14141;SDS011;7151;52.246;4.820;2023-12-07T14:17:00;16.03;;;9.73;;
14141;SDS011;7151;52.246;4.820;2023-12-07T14:19:25;16.30;;;8.40;;
14141;SDS011;7151;52.246;4.820;2023-12-07T14:21:51;20.47;;;9.50;;
14141;SDS011;7151;52.246;4.820;2023-12-07T14:24:18;15.50;;;8.50;;
14141;SDS011;7151;52.246;4.820;2023-12-07T14:26:44;16.90;;;8.97;;
14141;SDS011;7151;52.246;4.820;2023-12-07T14:29:10;15.13;;;8.50;;
14141;SDS011;7151;52.246;4.820;2023-12-07T14:31:40;18.27;;;8.47;;
14141;SDS011;7151;52.246;4.820;2023-12-07T14:34:06;16.80;;;8.70;;
14141;SDS011;7151;52.246;4.820;2023-12-07T14:36:32;17.93;;;9.50;;
14141;SDS011;7151;52.246;4.820;2023-12-07T14:38:58;15.93;;;9.03;;
14141;SDS011;7151;52.246;4.820;2023-12-07T14:41:23;19.30;;;9.53;;
14141;SDS011;7151;52.246;4.820;2023-12-07T14:43:49;16.10;;;8.57;;
14141;SDS011;7151;52.246;4.820;2023-12-07T14:46:15;21.70;;;9.70;;
14141;SDS011;7151;52.246;4.820;2023-12-07T14:48:41;16.17;;;8.80;;
14141;SDS011;7151;52.246;4.820;2023-12-07T14:51:06;14.73;;;9.03;;
14141;SDS011;7151;52.246;4.820;2023-12-07T14:53:34;14.27;;;8.27;;
14141;SDS011;7151;52.246;4.820;2023-12-07T14:55:59;16.57;;;9.57;;
14141;SDS011;7151;52.246;4.820;2023-12-07T14:58:25;15.50;;;8.93;;